Austin (LCRA Redbud)'s Hourly Summary for Thursday, May 10, 2018
Hour Temp
(f)
RH
(%)
Solar Rad.
(MJ/m2)
Rainfall
(in)
Wind
(mph)
5/10/2018 12:00 AM 73 58 0 0 0.4
5/10/2018 1:00 AM 70 70 0 0 0.4
5/10/2018 2:00 AM 69 81 0 0 0.4
5/10/2018 3:00 AM 68 84 0 0 0.4
5/10/2018 4:00 AM 67 86 0 0 0.4
5/10/2018 5:00 AM 67 90 0 0 0.4
5/10/2018 6:00 AM 65 94 0 0 0.4
5/10/2018 7:00 AM 65 94 0.01 0 0.4
5/10/2018 8:00 AM 68 91 0.21 0 0.4
5/10/2018 9:00 AM 72 83 0.68 0 0.4
5/10/2018 10:00 AM 75 75 1.18 0 0.4
5/10/2018 11:00 AM 78 55 2.51 0 0.4
5/10/2018 12:00 PM 81 49 2.76 0 0.4
5/10/2018 1:00 PM 83 43 3.15 0 0.4
5/10/2018 2:00 PM 84 39 3.37 0 0.4
5/10/2018 3:00 PM 85 39 3.4 0 0.4
5/10/2018 4:00 PM 86 36 2.71 0 0.4
5/10/2018 5:00 PM 86 35 2.33 0 0.4
5/10/2018 6:00 PM 86 35 1.26 0 0.4
5/10/2018 7:00 PM 86 33 0.96 0 0.4
5/10/2018 8:00 PM 84 40 0.13 0 0.4
5/10/2018 9:00 PM 82 53 0.01 0 0.4
5/10/2018 10:00 PM 79 60 0 0 0.4
5/10/2018 11:00 PM 77 68 0 0 0.4
Data Summary 76 62 24.67 0.00 0.40